sensor_id;sensor_type;location;lat;lon;timestamp;P1;durP1;ratioP1;P2;durP2;ratioP2
70138;SDS011;57507;43.056;0.150;2023-07-20T00:01:59;1.75;;;1.13;;
70138;SDS011;57507;43.056;0.150;2023-07-20T00:04:25;1.40;;;1.30;;
70138;SDS011;57507;43.056;0.150;2023-07-20T00:06:51;1.48;;;1.20;;
70138;SDS011;57507;43.056;0.150;2023-07-20T00:09:17;1.52;;;1.20;;
70138;SDS011;57507;43.056;0.150;2023-07-20T00:11:50;1.48;;;1.10;;
70138;SDS011;57507;43.056;0.150;2023-07-20T00:14:17;1.35;;;0.93;;
70138;SDS011;57507;43.056;0.150;2023-07-20T00:16:43;1.88;;;1.05;;
70138;SDS011;57507;43.056;0.150;2023-07-20T00:19:09;1.50;;;1.02;;
70138;SDS011;57507;43.056;0.150;2023-07-20T00:21:35;1.77;;;1.38;;
70138;SDS011;57507;43.056;0.150;2023-07-20T00:24:02;1.80;;;1.00;;
70138;SDS011;57507;43.056;0.150;2023-07-20T00:26:29;2.05;;;1.02;;
70138;SDS011;57507;43.056;0.150;2023-07-20T00:28:55;3.53;;;1.10;;
70138;SDS011;57507;43.056;0.150;2023-07-20T00:31:21;2.20;;;1.05;;
70138;SDS011;57507;43.056;0.150;2023-07-20T00:33:47;3.92;;;1.17;;
70138;SDS011;57507;43.056;0.150;2023-07-20T00:36:13;1.30;;;1.10;;
70138;SDS011;57507;43.056;0.150;2023-07-20T00:38:39;1.52;;;1.15;;
70138;SDS011;57507;43.056;0.150;2023-07-20T00:41:06;1.50;;;1.13;;
70138;SDS011;57507;43.056;0.150;2023-07-20T00:43:32;2.13;;;1.20;;
70138;SDS011;57507;43.056;0.150;2023-07-20T00:45:58;1.48;;;1.17;;
70138;SDS011;57507;43.056;0.150;2023-07-20T00:48:24;1.73;;;1.08;;
70138;SDS011;57507;43.056;0.150;2023-07-20T00:50:50;3.05;;;1.45;;
70138;SDS011;57507;43.056;0.150;2023-07-20T00:53:16;3.53;;;1.02;;
70138;SDS011;57507;43.056;0.150;2023-07-20T00:55:43;1.58;;;1.20;;
70138;SDS011;57507;43.056;0.150;2023-07-20T00:58:09;1.35;;;1.00;;
70138;SDS011;57507;43.056;0.150;2023-07-20T01:00:36;2.55;;;1.20;;
70138;SDS011;57507;43.056;0.150;2023-07-20T01:03:02;2.60;;;1.27;;
70138;SDS011;57507;43.056;0.150;2023-07-20T01:05:37;1.58;;;1.25;;
70138;SDS011;57507;43.056;0.150;2023-07-20T01:08:14;3.40;;;1.35;;
70138;SDS011;57507;43.056;0.150;2023-07-20T01:10:46;1.48;;;1.10;;
70138;SDS011;57507;43.056;0.150;2023-07-20T01:15:41;0.90;;;0.90;;
70138;SDS011;57507;43.056;0.150;2023-07-20T01:18:07;2.45;;;1.42;;
70138;SDS011;57507;43.056;0.150;2023-07-20T01:20:33;2.60;;;1.40;;
70138;SDS011;57507;43.056;0.150;2023-07-20T01:30:56;2.75;;;1.13;;
70138;SDS011;57507;43.056;0.150;2023-07-20T01:33:25;1.15;;;0.95;;
70138;SDS011;57507;43.056;0.150;2023-07-20T01:35:55;1.65;;;1.30;;
70138;SDS011;57507;43.056;0.150;2023-07-20T01:38:22;1.15;;;0.95;;
70138;SDS011;57507;43.056;0.150;2023-07-20T01:40:49;2.40;;;1.40;;
70138;SDS011;57507;43.056;0.150;2023-07-20T01:43:15;1.70;;;1.17;;
70138;SDS011;57507;43.056;0.150;2023-07-20T01:45:42;1.98;;;1.27;;
70138;SDS011;57507;43.056;0.150;2023-07-20T01:48:08;2.13;;;1.30;;
70138;SDS011;57507;43.056;0.150;2023-07-20T01:50:35;4.80;;;1.88;;
70138;SDS011;57507;43.056;0.150;2023-07-20T01:53:01;2.58;;;1.77;;
70138;SDS011;57507;43.056;0.150;2023-07-20T01:55:27;3.10;;;1.52;;
70138;SDS011;57507;43.056;0.150;2023-07-20T01:57:54;3.55;;;1.80;;
70138;SDS011;57507;43.056;0.150;2023-07-20T02:00:20;4.57;;;1.77;;
70138;SDS011;57507;43.056;0.150;2023-07-20T02:02:49;3.88;;;2.05;;
70138;SDS011;57507;43.056;0.150;2023-07-20T02:05:15;5.00;;;1.80;;
70138;SDS011;57507;43.056;0.150;2023-07-20T02:07:41;4.00;;;2.47;;
70138;SDS011;57507;43.056;0.150;2023-07-20T02:10:07;4.20;;;2.10;;
70138;SDS011;57507;43.056;0.150;2023-07-20T02:12:33;2.63;;;1.95;;
70138;SDS011;57507;43.056;0.150;2023-07-20T02:15:00;4.13;;;2.17;;
70138;SDS011;57507;43.056;0.150;2023-07-20T02:17:27;3.78;;;2.20;;
70138;SDS011;57507;43.056;0.150;2023-07-20T02:19:53;6.28;;;3.08;;
70138;SDS011;57507;43.056;0.150;2023-07-20T02:22:20;4.45;;;2.42;;
70138;SDS011;57507;43.056;0.150;2023-07-20T02:24:46;3.38;;;2.22;;
70138;SDS011;57507;43.056;0.150;2023-07-20T02:27:12;5.13;;;2.60;;
70138;SDS011;57507;43.056;0.150;2023-07-20T02:29:38;6.22;;;3.30;;
70138;SDS011;57507;43.056;0.150;2023-07-20T02:32:04;6.90;;;4.05;;
70138;SDS011;57507;43.056;0.150;2023-07-20T02:34:31;6.10;;;3.85;;
70138;SDS011;57507;43.056;0.150;2023-07-20T02:36:57;3.97;;;2.50;;
70138;SDS011;57507;43.056;0.150;2023-07-20T02:39:29;7.15;;;3.42;;
70138;SDS011;57507;43.056;0.150;2023-07-20T02:41:55;6.28;;;2.92;;
70138;SDS011;57507;43.056;0.150;2023-07-20T02:44:21;5.50;;;2.90;;
70138;SDS011;57507;43.056;0.150;2023-07-20T02:46:48;5.05;;;3.13;;
70138;SDS011;57507;43.056;0.150;2023-07-20T02:49:17;6.53;;;3.60;;
70138;SDS011;57507;43.056;0.150;2023-07-20T02:51:43;4.93;;;3.05;;
70138;SDS011;57507;43.056;0.150;2023-07-20T02:54:09;5.95;;;3.13;;
70138;SDS011;57507;43.056;0.150;2023-07-20T02:56:36;6.88;;;2.60;;
70138;SDS011;57507;43.056;0.150;2023-07-20T02:59:01;5.47;;;3.28;;
70138;SDS011;57507;43.056;0.150;2023-07-20T03:01:28;6.05;;;2.58;;
70138;SDS011;57507;43.056;0.150;2023-07-20T03:03:57;4.57;;;2.55;;
70138;SDS011;57507;43.056;0.150;2023-07-20T03:06:23;5.88;;;3.45;;
70138;SDS011;57507;43.056;0.150;2023-07-20T03:08:49;5.97;;;3.53;;
70138;SDS011;57507;43.056;0.150;2023-07-20T03:11:17;3.83;;;2.50;;
70138;SDS011;57507;43.056;0.150;2023-07-20T03:13:44;3.42;;;2.60;;
70138;SDS011;57507;43.056;0.150;2023-07-20T03:16:11;4.43;;;3.33;;
70138;SDS011;57507;43.056;0.150;2023-07-20T03:18:37;3.88;;;2.58;;
70138;SDS011;57507;43.056;0.150;2023-07-20T03:21:04;4.70;;;2.88;;
70138;SDS011;57507;43.056;0.150;2023-07-20T03:23:30;4.40;;;2.90;;
70138;SDS011;57507;43.056;0.150;2023-07-20T03:25:56;6.90;;;3.20;;
70138;SDS011;57507;43.056;0.150;2023-07-20T03:28:23;5.53;;;2.72;;
70138;SDS011;57507;43.056;0.150;2023-07-20T03:30:55;4.43;;;2.75;;
70138;SDS011;57507;43.056;0.150;2023-07-20T03:33:22;7.43;;;3.40;;
70138;SDS011;57507;43.056;0.150;2023-07-20T03:35:48;4.60;;;2.78;;
70138;SDS011;57507;43.056;0.150;2023-07-20T03:38:14;5.00;;;3.25;;
70138;SDS011;57507;43.056;0.150;2023-07-20T03:40:48;4.22;;;2.78;;
70138;SDS011;57507;43.056;0.150;2023-07-20T03:43:14;6.15;;;2.90;;
70138;SDS011;57507;43.056;0.150;2023-07-20T03:45:40;5.00;;;2.90;;
70138;SDS011;57507;43.056;0.150;2023-07-20T03:48:06;4.00;;;2.67;;
70138;SDS011;57507;43.056;0.150;2023-07-20T03:50:32;6.35;;;3.28;;
70138;SDS011;57507;43.056;0.150;2023-07-20T03:52:58;4.07;;;2.78;;
70138;SDS011;57507;43.056;0.150;2023-07-20T03:55:24;4.75;;;2.90;;
70138;SDS011;57507;43.056;0.150;2023-07-20T03:57:50;6.13;;;2.95;;
70138;SDS011;57507;43.056;0.150;2023-07-20T04:00:17;4.00;;;2.72;;
70138;SDS011;57507;43.056;0.150;2023-07-20T04:02:43;5.22;;;2.53;;
70138;SDS011;57507;43.056;0.150;2023-07-20T04:05:09;5.13;;;2.58;;
70138;SDS011;57507;43.056;0.150;2023-07-20T04:07:35;7.28;;;3.40;;
70138;SDS011;57507;43.056;0.150;2023-07-20T04:10:01;4.15;;;2.90;;
70138;SDS011;57507;43.056;0.150;2023-07-20T04:12:27;4.10;;;2.47;;
70138;SDS011;57507;43.056;0.150;2023-07-20T04:14:53;7.00;;;3.17;;
70138;SDS011;57507;43.056;0.150;2023-07-20T04:17:19;4.70;;;2.92;;
70138;SDS011;57507;43.056;0.150;2023-07-20T04:19:45;4.70;;;2.92;;
70138;SDS011;57507;43.056;0.150;2023-07-20T04:22:11;4.03;;;2.97;;
70138;SDS011;57507;43.056;0.150;2023-07-20T04:24:40;3.92;;;3.00;;
70138;SDS011;57507;43.056;0.150;2023-07-20T04:27:06;6.30;;;3.47;;
70138;SDS011;57507;43.056;0.150;2023-07-20T04:29:32;5.65;;;3.47;;
70138;SDS011;57507;43.056;0.150;2023-07-20T04:31:58;10.65;;;4.63;;
70138;SDS011;57507;43.056;0.150;2023-07-20T04:34:24;5.22;;;2.92;;
70138;SDS011;57507;43.056;0.150;2023-07-20T04:36:50;3.65;;;3.08;;
70138;SDS011;57507;43.056;0.150;2023-07-20T04:39:16;5.10;;;3.17;;
70138;SDS011;57507;43.056;0.150;2023-07-20T04:41:42;5.63;;;2.95;;
70138;SDS011;57507;43.056;0.150;2023-07-20T04:44:08;6.10;;;3.83;;
70138;SDS011;57507;43.056;0.150;2023-07-20T04:46:34;5.70;;;3.97;;
70138;SDS011;57507;43.056;0.150;2023-07-20T04:49:00;6.78;;;4.70;;
70138;SDS011;57507;43.056;0.150;2023-07-20T04:51:26;7.20;;;3.45;;
70138;SDS011;57507;43.056;0.150;2023-07-20T04:53:55;6.75;;;3.92;;
70138;SDS011;57507;43.056;0.150;2023-07-20T04:56:21;6.82;;;4.15;;
70138;SDS011;57507;43.056;0.150;2023-07-20T04:58:50;5.72;;;4.15;;
70138;SDS011;57507;43.056;0.150;2023-07-20T05:01:16;4.47;;;3.30;;
70138;SDS011;57507;43.056;0.150;2023-07-20T05:03:42;5.68;;;3.72;;
70138;SDS011;57507;43.056;0.150;2023-07-20T05:06:08;5.93;;;3.15;;
70138;SDS011;57507;43.056;0.150;2023-07-20T05:08:34;5.10;;;3.47;;
70138;SDS011;57507;43.056;0.150;2023-07-20T05:11:00;5.40;;;3.30;;
70138;SDS011;57507;43.056;0.150;2023-07-20T05:13:27;5.40;;;3.47;;
70138;SDS011;57507;43.056;0.150;2023-07-20T05:15:53;5.20;;;3.30;;
70138;SDS011;57507;43.056;0.150;2023-07-20T05:18:19;4.57;;;3.47;;
70138;SDS011;57507;43.056;0.150;2023-07-20T05:20:46;4.88;;;2.95;;
70138;SDS011;57507;43.056;0.150;2023-07-20T05:23:12;5.07;;;2.92;;
70138;SDS011;57507;43.056;0.150;2023-07-20T05:25:38;4.07;;;2.90;;
70138;SDS011;57507;43.056;0.150;2023-07-20T05:28:04;3.78;;;2.85;;
70138;SDS011;57507;43.056;0.150;2023-07-20T05:30:31;11.02;;;4.03;;
70138;SDS011;57507;43.056;0.150;2023-07-20T05:32:57;5.38;;;3.22;;
70138;SDS011;57507;43.056;0.150;2023-07-20T05:35:23;4.18;;;2.45;;
70138;SDS011;57507;43.056;0.150;2023-07-20T05:37:49;4.88;;;2.42;;
70138;SDS011;57507;43.056;0.150;2023-07-20T05:40:15;3.50;;;2.65;;
70138;SDS011;57507;43.056;0.150;2023-07-20T05:42:44;3.33;;;2.55;;
70138;SDS011;57507;43.056;0.150;2023-07-20T05:45:11;7.07;;;2.85;;
70138;SDS011;57507;43.056;0.150;2023-07-20T05:47:37;4.15;;;2.28;;
70138;SDS011;57507;43.056;0.150;2023-07-20T05:50:03;4.95;;;2.65;;
70138;SDS011;57507;43.056;0.150;2023-07-20T05:52:29;4.18;;;2.65;;
70138;SDS011;57507;43.056;0.150;2023-07-20T05:54:55;5.10;;;3.00;;
70138;SDS011;57507;43.056;0.150;2023-07-20T05:57:21;4.68;;;2.78;;
70138;SDS011;57507;43.056;0.150;2023-07-20T05:59:47;4.32;;;2.60;;
70138;SDS011;57507;43.056;0.150;2023-07-20T06:02:13;4.90;;;2.90;;
70138;SDS011;57507;43.056;0.150;2023-07-20T06:04:39;4.03;;;2.70;;
70138;SDS011;57507;43.056;0.150;2023-07-20T06:07:06;5.60;;;3.10;;
70138;SDS011;57507;43.056;0.150;2023-07-20T06:09:34;4.03;;;2.63;;
70138;SDS011;57507;43.056;0.150;2023-07-20T06:12:01;3.70;;;2.53;;
70138;SDS011;57507;43.056;0.150;2023-07-20T06:14:27;3.55;;;2.45;;
70138;SDS011;57507;43.056;0.150;2023-07-20T06:16:53;3.25;;;2.47;;
70138;SDS011;57507;43.056;0.150;2023-07-20T06:19:19;4.60;;;2.55;;
70138;SDS011;57507;43.056;0.150;2023-07-20T06:21:47;4.25;;;2.28;;
70138;SDS011;57507;43.056;0.150;2023-07-20T06:24:14;3.92;;;2.58;;
70138;SDS011;57507;43.056;0.150;2023-07-20T06:26:40;3.00;;;2.10;;
70138;SDS011;57507;43.056;0.150;2023-07-20T06:29:06;4.20;;;2.15;;
70138;SDS011;57507;43.056;0.150;2023-07-20T06:31:34;3.45;;;2.40;;
70138;SDS011;57507;43.056;0.150;2023-07-20T06:34:00;6.35;;;2.58;;
70138;SDS011;57507;43.056;0.150;2023-07-20T06:36:27;3.10;;;2.05;;
70138;SDS011;57507;43.056;0.150;2023-07-20T06:38:53;3.00;;;2.10;;
70138;SDS011;57507;43.056;0.150;2023-07-20T06:41:19;4.00;;;2.38;;
70138;SDS011;57507;43.056;0.150;2023-07-20T06:43:45;4.53;;;2.75;;
70138;SDS011;57507;43.056;0.150;2023-07-20T06:46:11;3.97;;;2.58;;
70138;SDS011;57507;43.056;0.150;2023-07-20T06:48:37;4.97;;;2.45;;
70138;SDS011;57507;43.056;0.150;2023-07-20T06:51:03;3.60;;;2.33;;
70138;SDS011;57507;43.056;0.150;2023-07-20T06:53:30;3.60;;;2.50;;
70138;SDS011;57507;43.056;0.150;2023-07-20T06:55:56;4.63;;;2.35;;
70138;SDS011;57507;43.056;0.150;2023-07-20T06:58:22;4.55;;;2.60;;
70138;SDS011;57507;43.056;0.150;2023-07-20T07:00:49;3.53;;;2.45;;
70138;SDS011;57507;43.056;0.150;2023-07-20T07:03:15;5.47;;;2.58;;
70138;SDS011;57507;43.056;0.150;2023-07-20T07:05:41;6.47;;;2.47;;
70138;SDS011;57507;43.056;0.150;2023-07-20T07:08:07;4.00;;;2.45;;
70138;SDS011;57507;43.056;0.150;2023-07-20T07:10:34;3.30;;;2.45;;
70138;SDS011;57507;43.056;0.150;2023-07-20T07:13:01;4.40;;;2.83;;
70138;SDS011;57507;43.056;0.150;2023-07-20T07:15:27;5.57;;;2.13;;
70138;SDS011;57507;43.056;0.150;2023-07-20T07:17:53;4.03;;;2.65;;
70138;SDS011;57507;43.056;0.150;2023-07-20T07:20:19;5.07;;;2.72;;
70138;SDS011;57507;43.056;0.150;2023-07-20T07:22:45;3.92;;;2.55;;
70138;SDS011;57507;43.056;0.150;2023-07-20T07:25:11;6.07;;;3.28;;
70138;SDS011;57507;43.056;0.150;2023-07-20T07:27:37;3.33;;;2.50;;
70138;SDS011;57507;43.056;0.150;2023-07-20T07:30:31;5.93;;;3.08;;
70138;SDS011;57507;43.056;0.150;2023-07-20T07:32:57;3.88;;;2.60;;
70138;SDS011;57507;43.056;0.150;2023-07-20T07:35:23;2.42;;;2.13;;
70138;SDS011;57507;43.056;0.150;2023-07-20T07:37:49;2.83;;;2.20;;
70138;SDS011;57507;43.056;0.150;2023-07-20T07:40:15;4.95;;;2.38;;
70138;SDS011;57507;43.056;0.150;2023-07-20T07:42:41;4.15;;;2.70;;
70138;SDS011;57507;43.056;0.150;2023-07-20T07:45:07;3.85;;;2.80;;
70138;SDS011;57507;43.056;0.150;2023-07-20T07:47:34;3.55;;;2.38;;
70138;SDS011;57507;43.056;0.150;2023-07-20T07:50:00;3.40;;;2.50;;
70138;SDS011;57507;43.056;0.150;2023-07-20T07:52:26;3.92;;;2.70;;
70138;SDS011;57507;43.056;0.150;2023-07-20T07:54:52;4.40;;;2.28;;
70138;SDS011;57507;43.056;0.150;2023-07-20T07:57:18;4.10;;;2.35;;
70138;SDS011;57507;43.056;0.150;2023-07-20T07:59:44;5.00;;;2.53;;
70138;SDS011;57507;43.056;0.150;2023-07-20T08:02:10;3.70;;;2.40;;
70138;SDS011;57507;43.056;0.150;2023-07-20T08:04:36;4.25;;;2.60;;
70138;SDS011;57507;43.056;0.150;2023-07-20T08:07:03;4.10;;;2.60;;
70138;SDS011;57507;43.056;0.150;2023-07-20T08:09:29;6.40;;;2.72;;
70138;SDS011;57507;43.056;0.150;2023-07-20T08:11:55;4.57;;;2.38;;
70138;SDS011;57507;43.056;0.150;2023-07-20T08:14:21;6.03;;;2.60;;
70138;SDS011;57507;43.056;0.150;2023-07-20T08:16:47;5.03;;;2.47;;
70138;SDS011;57507;43.056;0.150;2023-07-20T08:19:13;3.90;;;2.25;;
70138;SDS011;57507;43.056;0.150;2023-07-20T08:21:39;3.17;;;2.20;;
70138;SDS011;57507;43.056;0.150;2023-07-20T08:24:05;2.70;;;2.38;;
70138;SDS011;57507;43.056;0.150;2023-07-20T08:26:32;3.45;;;2.33;;
70138;SDS011;57507;43.056;0.150;2023-07-20T08:28:58;4.55;;;2.65;;
70138;SDS011;57507;43.056;0.150;2023-07-20T08:31:24;3.42;;;2.35;;
70138;SDS011;57507;43.056;0.150;2023-07-20T08:33:50;5.65;;;2.90;;
70138;SDS011;57507;43.056;0.150;2023-07-20T08:36:16;4.15;;;2.65;;
70138;SDS011;57507;43.056;0.150;2023-07-20T08:38:42;5.03;;;2.40;;
70138;SDS011;57507;43.056;0.150;2023-07-20T08:41:08;5.60;;;2.65;;
70138;SDS011;57507;43.056;0.150;2023-07-20T08:43:34;3.55;;;2.60;;
70138;SDS011;57507;43.056;0.150;2023-07-20T08:46:02;3.50;;;2.75;;
70138;SDS011;57507;43.056;0.150;2023-07-20T08:48:28;3.67;;;2.50;;
70138;SDS011;57507;43.056;0.150;2023-07-20T08:50:56;4.50;;;2.42;;
70138;SDS011;57507;43.056;0.150;2023-07-20T08:53:25;5.70;;;2.83;;
70138;SDS011;57507;43.056;0.150;2023-07-20T08:55:51;8.05;;;3.20;;
70138;SDS011;57507;43.056;0.150;2023-07-20T08:58:17;2.95;;;2.30;;
70138;SDS011;57507;43.056;0.150;2023-07-20T09:00:43;5.25;;;2.72;;
70138;SDS011;57507;43.056;0.150;2023-07-20T09:03:10;6.10;;;2.58;;
70138;SDS011;57507;43.056;0.150;2023-07-20T09:05:36;4.55;;;3.08;;
70138;SDS011;57507;43.056;0.150;2023-07-20T09:08:05;4.55;;;2.65;;
70138;SDS011;57507;43.056;0.150;2023-07-20T09:10:31;4.63;;;2.78;;
70138;SDS011;57507;43.056;0.150;2023-07-20T09:12:57;4.75;;;3.47;;
70138;SDS011;57507;43.056;0.150;2023-07-20T09:15:23;7.43;;;3.08;;
70138;SDS011;57507;43.056;0.150;2023-07-20T09:17:50;5.47;;;3.10;;
70138;SDS011;57507;43.056;0.150;2023-07-20T09:20:17;5.80;;;2.90;;
70138;SDS011;57507;43.056;0.150;2023-07-20T09:22:43;4.68;;;3.08;;
70138;SDS011;57507;43.056;0.150;2023-07-20T09:25:16;6.97;;;3.97;;
70138;SDS011;57507;43.056;0.150;2023-07-20T09:30:09;6.22;;;3.42;;
70138;SDS011;57507;43.056;0.150;2023-07-20T09:32:42;3.75;;;3.10;;
70138;SDS011;57507;43.056;0.150;2023-07-20T09:35:12;5.82;;;3.00;;
70138;SDS011;57507;43.056;0.150;2023-07-20T09:37:38;5.05;;;3.50;;
70138;SDS011;57507;43.056;0.150;2023-07-20T09:40:06;4.90;;;2.97;;
70138;SDS011;57507;43.056;0.150;2023-07-20T09:42:34;5.88;;;3.22;;
70138;SDS011;57507;43.056;0.150;2023-07-20T09:45:00;5.63;;;3.17;;
70138;SDS011;57507;43.056;0.150;2023-07-20T09:47:26;5.53;;;3.22;;
70138;SDS011;57507;43.056;0.150;2023-07-20T09:49:58;5.50;;;3.22;;
70138;SDS011;57507;43.056;0.150;2023-07-20T09:52:28;4.20;;;2.88;;
70138;SDS011;57507;43.056;0.150;2023-07-20T09:54:55;5.55;;;3.50;;
70138;SDS011;57507;43.056;0.150;2023-07-20T09:57:21;9.05;;;3.88;;
70138;SDS011;57507;43.056;0.150;2023-07-20T09:59:47;5.35;;;2.72;;
70138;SDS011;57507;43.056;0.150;2023-07-20T10:02:30;5.68;;;3.58;;
70138;SDS011;57507;43.056;0.150;2023-07-20T10:04:56;5.38;;;4.03;;
70138;SDS011;57507;43.056;0.150;2023-07-20T10:07:24;5.32;;;3.53;;
70138;SDS011;57507;43.056;0.150;2023-07-20T10:09:53;5.05;;;3.30;;
70138;SDS011;57507;43.056;0.150;2023-07-20T10:12:20;4.00;;;3.08;;
70138;SDS011;57507;43.056;0.150;2023-07-20T10:14:51;5.60;;;3.58;;
70138;SDS011;57507;43.056;0.150;2023-07-20T10:17:18;6.57;;;3.40;;
70138;SDS011;57507;43.056;0.150;2023-07-20T10:19:48;5.85;;;3.45;;
70138;SDS011;57507;43.056;0.150;2023-07-20T10:22:26;5.55;;;3.50;;
70138;SDS011;57507;43.056;0.150;2023-07-20T10:24:53;4.70;;;3.20;;
70138;SDS011;57507;43.056;0.150;2023-07-20T10:27:22;8.38;;;3.55;;
70138;SDS011;57507;43.056;0.150;2023-07-20T10:29:48;5.95;;;3.15;;
70138;SDS011;57507;43.056;0.150;2023-07-20T10:32:14;4.15;;;3.30;;
70138;SDS011;57507;43.056;0.150;2023-07-20T10:34:40;4.50;;;3.05;;
70138;SDS011;57507;43.056;0.150;2023-07-20T10:37:06;5.05;;;3.10;;
70138;SDS011;57507;43.056;0.150;2023-07-20T10:39:33;5.95;;;3.38;;
70138;SDS011;57507;43.056;0.150;2023-07-20T10:42:03;6.80;;;3.42;;
70138;SDS011;57507;43.056;0.150;2023-07-20T10:44:32;4.65;;;2.97;;
70138;SDS011;57507;43.056;0.150;2023-07-20T10:46:59;4.57;;;3.50;;
70138;SDS011;57507;43.056;0.150;2023-07-20T10:49:25;4.38;;;3.30;;
70138;SDS011;57507;43.056;0.150;2023-07-20T10:51:56;5.68;;;3.75;;
70138;SDS011;57507;43.056;0.150;2023-07-20T10:56:50;5.07;;;3.17;;
70138;SDS011;57507;43.056;0.150;2023-07-20T11:01:57;4.55;;;3.40;;
70138;SDS011;57507;43.056;0.150;2023-07-20T11:04:47;4.43;;;3.35;;
70138;SDS011;57507;43.056;0.150;2023-07-20T11:07:16;7.40;;;3.35;;
70138;SDS011;57507;43.056;0.150;2023-07-20T11:09:43;5.63;;;3.10;;
70138;SDS011;57507;43.056;0.150;2023-07-20T11:12:10;5.07;;;3.42;;
70138;SDS011;57507;43.056;0.150;2023-07-20T11:14:40;6.53;;;3.25;;
70138;SDS011;57507;43.056;0.150;2023-07-20T11:17:13;5.00;;;3.30;;
70138;SDS011;57507;43.056;0.150;2023-07-20T11:19:39;4.30;;;3.20;;
70138;SDS011;57507;43.056;0.150;2023-07-20T11:22:06;5.55;;;3.35;;
70138;SDS011;57507;43.056;0.150;2023-07-20T11:24:39;4.85;;;3.33;;
70138;SDS011;57507;43.056;0.150;2023-07-20T11:27:05;4.53;;;3.28;;
70138;SDS011;57507;43.056;0.150;2023-07-20T11:29:31;5.93;;;3.45;;
70138;SDS011;57507;43.056;0.150;2023-07-20T11:31:57;4.53;;;2.75;;
70138;SDS011;57507;43.056;0.150;2023-07-20T11:34:24;5.13;;;3.28;;
70138;SDS011;57507;43.056;0.150;2023-07-20T11:36:50;5.00;;;3.05;;
70138;SDS011;57507;43.056;0.150;2023-07-20T11:39:17;6.70;;;2.95;;
70138;SDS011;57507;43.056;0.150;2023-07-20T11:41:47;4.50;;;2.97;;
70138;SDS011;57507;43.056;0.150;2023-07-20T11:44:18;4.07;;;2.88;;
70138;SDS011;57507;43.056;0.150;2023-07-20T11:46:45;5.65;;;3.53;;
70138;SDS011;57507;43.056;0.150;2023-07-20T11:49:11;5.70;;;3.47;;
70138;SDS011;57507;43.056;0.150;2023-07-20T11:51:38;5.65;;;3.85;;
70138;SDS011;57507;43.056;0.150;2023-07-20T11:54:04;7.68;;;3.60;;
70138;SDS011;57507;43.056;0.150;2023-07-20T11:56:30;6.20;;;4.00;;
70138;SDS011;57507;43.056;0.150;2023-07-20T11:58:57;3.58;;;3.00;;
70138;SDS011;57507;43.056;0.150;2023-07-20T12:01:26;6.00;;;3.50;;
70138;SDS011;57507;43.056;0.150;2023-07-20T12:04:00;5.32;;;2.95;;
70138;SDS011;57507;43.056;0.150;2023-07-20T12:06:27;4.10;;;3.08;;
70138;SDS011;57507;43.056;0.150;2023-07-20T12:08:54;3.90;;;2.78;;
70138;SDS011;57507;43.056;0.150;2023-07-20T12:11:33;4.22;;;3.17;;
70138;SDS011;57507;43.056;0.150;2023-07-20T12:13:59;4.53;;;3.13;;
70138;SDS011;57507;43.056;0.150;2023-07-20T12:16:28;4.93;;;3.13;;
70138;SDS011;57507;43.056;0.150;2023-07-20T12:19:10;4.70;;;3.10;;
70138;SDS011;57507;43.056;0.150;2023-07-20T12:21:38;4.35;;;2.80;;
70138;SDS011;57507;43.056;0.150;2023-07-20T12:24:05;4.38;;;3.00;;
70138;SDS011;57507;43.056;0.150;2023-07-20T12:26:32;3.97;;;2.58;;
70138;SDS011;57507;43.056;0.150;2023-07-20T12:28:58;6.65;;;3.47;;
70138;SDS011;57507;43.056;0.150;2023-07-20T12:31:25;4.53;;;2.85;;
70138;SDS011;57507;43.056;0.150;2023-07-20T12:33:51;4.05;;;2.95;;
70138;SDS011;57507;43.056;0.150;2023-07-20T12:36:18;5.78;;;3.30;;
70138;SDS011;57507;43.056;0.150;2023-07-20T12:38:44;6.90;;;3.13;;
70138;SDS011;57507;43.056;0.150;2023-07-20T12:41:11;4.38;;;2.97;;
70138;SDS011;57507;43.056;0.150;2023-07-20T12:43:41;4.47;;;3.08;;
70138;SDS011;57507;43.056;0.150;2023-07-20T12:46:07;4.38;;;3.40;;
70138;SDS011;57507;43.056;0.150;2023-07-20T12:48:33;3.03;;;2.72;;
70138;SDS011;57507;43.056;0.150;2023-07-20T12:50:59;5.03;;;2.90;;
70138;SDS011;57507;43.056;0.150;2023-07-20T12:53:25;4.65;;;3.53;;
70138;SDS011;57507;43.056;0.150;2023-07-20T12:55:51;5.10;;;3.00;;
70138;SDS011;57507;43.056;0.150;2023-07-20T12:58:17;4.88;;;2.92;;
70138;SDS011;57507;43.056;0.150;2023-07-20T13:00:43;4.43;;;2.80;;
70138;SDS011;57507;43.056;0.150;2023-07-20T13:03:09;4.50;;;2.88;;
70138;SDS011;57507;43.056;0.150;2023-07-20T13:05:36;4.72;;;3.22;;
70138;SDS011;57507;43.056;0.150;2023-07-20T13:08:02;4.38;;;3.00;;
70138;SDS011;57507;43.056;0.150;2023-07-20T13:10:29;5.55;;;2.88;;
70138;SDS011;57507;43.056;0.150;2023-07-20T13:12:55;8.35;;;3.50;;
70138;SDS011;57507;43.056;0.150;2023-07-20T13:15:24;6.40;;;3.05;;
70138;SDS011;57507;43.056;0.150;2023-07-20T13:17:50;8.68;;;3.40;;
70138;SDS011;57507;43.056;0.150;2023-07-20T13:20:16;9.18;;;3.38;;
70138;SDS011;57507;43.056;0.150;2023-07-20T13:22:43;7.75;;;3.38;;
70138;SDS011;57507;43.056;0.150;2023-07-20T13:25:09;7.13;;;3.78;;
70138;SDS011;57507;43.056;0.150;2023-07-20T13:27:35;6.65;;;3.45;;
70138;SDS011;57507;43.056;0.150;2023-07-20T13:30:02;10.25;;;3.58;;
70138;SDS011;57507;43.056;0.150;2023-07-20T13:32:31;9.25;;;3.53;;
70138;SDS011;57507;43.056;0.150;2023-07-20T13:34:58;4.57;;;3.20;;
70138;SDS011;57507;43.056;0.150;2023-07-20T13:37:24;5.40;;;3.55;;
70138;SDS011;57507;43.056;0.150;2023-07-20T13:39:50;5.82;;;3.28;;
70138;SDS011;57507;43.056;0.150;2023-07-20T13:42:16;8.30;;;3.60;;
70138;SDS011;57507;43.056;0.150;2023-07-20T13:44:43;6.53;;;3.25;;
70138;SDS011;57507;43.056;0.150;2023-07-20T13:47:09;7.25;;;3.40;;
70138;SDS011;57507;43.056;0.150;2023-07-20T13:49:35;6.05;;;3.15;;
70138;SDS011;57507;43.056;0.150;2023-07-20T13:52:01;4.55;;;3.00;;
70138;SDS011;57507;43.056;0.150;2023-07-20T13:54:27;6.72;;;3.42;;
70138;SDS011;57507;43.056;0.150;2023-07-20T13:56:53;5.63;;;3.28;;
70138;SDS011;57507;43.056;0.150;2023-07-20T13:59:19;5.13;;;3.03;;
70138;SDS011;57507;43.056;0.150;2023-07-20T14:01:45;6.57;;;3.30;;
70138;SDS011;57507;43.056;0.150;2023-07-20T14:04:12;5.78;;;3.25;;
70138;SDS011;57507;43.056;0.150;2023-07-20T14:06:38;7.22;;;3.25;;
70138;SDS011;57507;43.056;0.150;2023-07-20T14:09:04;5.40;;;3.25;;
70138;SDS011;57507;43.056;0.150;2023-07-20T14:11:30;3.92;;;2.90;;
70138;SDS011;57507;43.056;0.150;2023-07-20T14:13:56;6.72;;;3.15;;
70138;SDS011;57507;43.056;0.150;2023-07-20T14:16:23;5.88;;;3.95;;
70138;SDS011;57507;43.056;0.150;2023-07-20T14:18:50;5.18;;;3.55;;
70138;SDS011;57507;43.056;0.150;2023-07-20T14:21:16;4.13;;;2.95;;
70138;SDS011;57507;43.056;0.150;2023-07-20T14:23:44;6.75;;;3.50;;
70138;SDS011;57507;43.056;0.150;2023-07-20T14:26:11;5.93;;;3.92;;
70138;SDS011;57507;43.056;0.150;2023-07-20T14:28:37;7.43;;;3.60;;
70138;SDS011;57507;43.056;0.150;2023-07-20T14:31:03;5.75;;;2.80;;
70138;SDS011;57507;43.056;0.150;2023-07-20T14:33:30;7.82;;;3.88;;
70138;SDS011;57507;43.056;0.150;2023-07-20T14:35:56;5.68;;;3.38;;
70138;SDS011;57507;43.056;0.150;2023-07-20T14:38:22;4.70;;;3.17;;
70138;SDS011;57507;43.056;0.150;2023-07-20T14:40:48;4.53;;;3.25;;
70138;SDS011;57507;43.056;0.150;2023-07-20T14:43:14;4.68;;;3.45;;
70138;SDS011;57507;43.056;0.150;2023-07-20T14:45:43;5.35;;;3.58;;
70138;SDS011;57507;43.056;0.150;2023-07-20T14:48:10;5.13;;;3.15;;
70138;SDS011;57507;43.056;0.150;2023-07-20T14:50:36;4.32;;;3.20;;
70138;SDS011;57507;43.056;0.150;2023-07-20T14:53:02;6.07;;;3.25;;
70138;SDS011;57507;43.056;0.150;2023-07-20T14:55:28;5.47;;;3.72;;
70138;SDS011;57507;43.056;0.150;2023-07-20T14:57:54;7.07;;;3.65;;
70138;SDS011;57507;43.056;0.150;2023-07-20T15:00:20;6.53;;;3.67;;
70138;SDS011;57507;43.056;0.150;2023-07-20T15:02:47;5.53;;;3.65;;
70138;SDS011;57507;43.056;0.150;2023-07-20T15:05:19;5.60;;;3.05;;